Time;durP1;ratioP1;P1;durP2;ratioP2;P2;SDS_P1;SDS_P2;PMS_P1;PMS_P2;Temp;Humidity;BMP_temperature;BMP_pressure;BME280_temperature;BME280_humidity;BME280_pressure;Samples;Min_cycle;Max_cycle;Signal;HPM_P1;HPM_P2
2021/12/06 00:00:50;;;;;;;7.75;3.97;;;;;;;;;;4952800;28;20027;-82
2021/12/06 00:03:19;;;;;;;4.97;3.40;;;;;;;;;;4939693;28;20031;-81
2021/12/06 00:05:45;;;;;;;6.32;3.85;;;;;;;;;;4952705;28;20032;-81
2021/12/06 00:08:12;;;;;;;6.50;3.63;;;;;;;;;;4934851;28;20123;-82
2021/12/06 00:10:38;;;;;;;6.25;3.92;;;;;;;;;;4935130;29;20063;-82
2021/12/06 00:13:05;;;;;;;7.00;4.53;;;;;;;;;;4967131;28;20082;-83
2021/12/06 00:15:33;;;;;;;4.97;3.72;;;;;;;;;;4954727;28;20411;-82
2021/12/06 00:18:00;;;;;;;5.72;3.50;;;;;;;;;;4954890;28;20092;-81
2021/12/06 00:20:27;;;;;;;5.20;3.60;;;;;;;;;;4982592;28;20031;-81
2021/12/06 00:22:53;;;;;;;5.75;3.53;;;;;;;;;;4977807;28;20035;-82
2021/12/06 00:25:19;;;;;;;5.82;3.60;;;;;;;;;;4966672;28;20145;-81
2021/12/06 00:27:45;;;;;;;4.50;3.00;;;;;;;;;;4949000;28;20031;-81
2021/12/06 00:30:15;;;;;;;4.10;3.00;;;;;;;;;;4963001;28;20031;-83
2021/12/06 00:32:41;;;;;;;5.37;3.13;;;;;;;;;;4936824;28;20038;-83
2021/12/06 00:35:12;;;;;;;4.45;3.13;;;;;;;;;;4954157;28;20161;-83
2021/12/06 00:37:44;;;;;;;6.00;3.30;;;;;;;;;;4954545;28;20019;-83
2021/12/06 00:40:11;;;;;;;3.50;2.90;;;;;;;;;;4940379;29;20031;-84
2021/12/06 00:42:37;;;;;;;4.47;3.13;;;;;;;;;;4956551;28;20035;-84
2021/12/06 00:45:08;;;;;;;5.68;3.85;;;;;;;;;;4955837;28;20035;-84
2021/12/06 00:47:34;;;;;;;5.47;3.35;;;;;;;;;;4939197;28;20046;-83
2021/12/06 00:50:00;;;;;;;4.25;3.05;;;;;;;;;;4956462;28;20027;-84
2021/12/06 00:52:26;;;;;;;6.82;3.80;;;;;;;;;;4939175;28;20026;-82
2021/12/06 00:54:52;;;;;;;5.90;3.67;;;;;;;;;;4956105;28;20031;-82
2021/12/06 00:57:18;;;;;;;5.13;3.53;;;;;;;;;;4956066;28;20031;-82
2021/12/06 00:59:45;;;;;;;5.93;3.33;;;;;;;;;;4956575;28;20671;-82
2021/12/06 01:02:11;;;;;;;5.78;3.40;;;;;;;;;;4955907;28;20043;-83
2021/12/06 01:04:39;;;;;;;4.70;3.65;;;;;;;;;;4955848;29;20442;-82
2021/12/06 01:07:06;;;;;;;5.22;3.90;;;;;;;;;;4955930;28;20038;-83
2021/12/06 01:09:33;;;;;;;8.45;4.40;;;;;;;;;;4938825;28;20048;-83
2021/12/06 01:11:59;;;;;;;8.20;4.13;;;;;;;;;;4959702;28;20551;-83
2021/12/06 01:14:25;;;;;;;7.28;4.40;;;;;;;;;;4955567;28;20582;-83
2021/12/06 01:16:52;;;;;;;7.32;4.22;;;;;;;;;;4964963;28;20055;-80
2021/12/06 01:19:18;;;;;;;17.27;4.55;;;;;;;;;;4962413;29;20028;-84
2021/12/06 01:21:51;;;;;;;14.48;4.35;;;;;;;;;;4956181;29;20027;-83
2021/12/06 01:24:24;;;;;;;6.47;4.63;;;;;;;;;;4956176;29;20483;-82
2021/12/06 01:39:41;;;;;;;6.28;3.53;;;;;;;;;;4955966;29;20069;-84
2021/12/06 01:42:08;;;;;;;5.93;4.10;;;;;;;;;;4955838;28;20074;-83
2021/12/06 01:44:39;;;;;;;7.00;4.00;;;;;;;;;;4937882;28;20028;-82
2021/12/06 01:47:06;;;;;;;7.90;5.30;;;;;;;;;;4955955;28;20031;-82
2021/12/06 01:49:37;;;;;;;9.93;5.28;;;;;;;;;;4954676;28;20056;-82
2021/12/06 01:52:08;;;;;;;7.75;5.35;;;;;;;;;;4956501;28;20030;-83
2021/12/06 01:54:34;;;;;;;8.68;5.82;;;;;;;;;;4959455;29;20028;-83
2021/12/06 01:57:00;;;;;;;8.52;5.45;;;;;;;;;;4961999;28;20034;-81
2021/12/06 01:59:26;;;;;;;7.82;5.05;;;;;;;;;;4960367;28;20027;-84
2021/12/06 02:01:53;;;;;;;9.50;5.60;;;;;;;;;;4947995;28;20028;-83
2021/12/06 02:04:19;;;;;;;10.63;5.22;;;;;;;;;;4944279;28;20091;-83
2021/12/06 02:06:46;;;;;;;9.88;6.03;;;;;;;;;;4946792;28;20038;-84
2021/12/06 02:09:14;;;;;;;8.95;5.72;;;;;;;;;;4957609;28;20046;-84
2021/12/06 02:11:40;;;;;;;11.70;6.55;;;;;;;;;;4957834;28;20023;-83
2021/12/06 02:14:22;;;;;;;9.30;5.75;;;;;;;;;;4965532;28;20022;-84
2021/12/06 02:17:08;;;;;;;11.77;7.25;;;;;;;;;;4940386;29;20051;-83
2021/12/06 02:19:40;;;;;;;10.68;6.75;;;;;;;;;;4955947;28;20492;-81
2021/12/06 02:22:08;;;;;;;17.58;6.28;;;;;;;;;;4945223;29;20475;-82
2021/12/06 02:24:37;;;;;;;14.70;6.75;;;;;;;;;;4961757;28;20027;-82
2021/12/06 02:27:03;;;;;;;15.38;7.70;;;;;;;;;;4949372;28;20086;-82
2021/12/06 02:29:30;;;;;;;12.57;6.78;;;;;;;;;;4945177;29;20039;-83
2021/12/06 02:31:56;;;;;;;17.30;8.27;;;;;;;;;;4957807;28;20412;-82
2021/12/06 02:34:22;;;;;;;47.40;8.18;;;;;;;;;;4975636;28;20069;-84
2021/12/06 02:36:48;;;;;;;37.20;8.23;;;;;;;;;;4956656;29;20055;-83
2021/12/06 02:39:21;;;;;;;16.27;7.53;;;;;;;;;;4939695;28;20045;-82
2021/12/06 02:41:49;;;;;;;35.38;8.30;;;;;;;;;;4967350;28;20561;-82
2021/12/06 02:44:16;;;;;;;33.50;7.43;;;;;;;;;;4958043;28;20037;-83
2021/12/06 02:46:42;;;;;;;43.97;9.05;;;;;;;;;;4959661;28;20035;-82
2021/12/06 02:49:09;;;;;;;57.22;8.38;;;;;;;;;;4954654;28;20088;-82
2021/12/06 02:51:35;;;;;;;96.28;8.63;;;;;;;;;;4937854;28;20035;-83
2021/12/06 02:54:01;;;;;;;79.82;8.43;;;;;;;;;;4954735;28;20466;-83
2021/12/06 02:56:39;;;;;;;65.50;9.27;;;;;;;;;;4954216;29;20027;-84
2021/12/06 02:59:08;;;;;;;82.13;8.45;;;;;;;;;;4966881;28;20402;-83
2021/12/06 03:01:36;;;;;;;73.95;9.32;;;;;;;;;;4973610;28;20050;-84
2021/12/06 03:04:03;;;;;;;111.32;8.23;;;;;;;;;;4936969;29;20038;-84
2021/12/06 03:06:30;;;;;;;149.90;8.98;;;;;;;;;;4954333;28;20023;-84
2021/12/06 03:09:05;;;;;;;78.32;8.38;;;;;;;;;;4954435;28;20041;-83
2021/12/06 03:11:37;;;;;;;134.10;8.63;;;;;;;;;;4939158;28;20066;-81
2021/12/06 03:14:04;;;;;;;61.67;7.00;;;;;;;;;;4954459;28;20027;-83
2021/12/06 03:16:30;;;;;;;144.00;8.63;;;;;;;;;;4958189;28;20027;-82
2021/12/06 03:18:56;;;;;;;125.90;8.68;;;;;;;;;;4958474;28;20035;-83
2021/12/06 03:21:23;;;;;;;110.25;8.88;;;;;;;;;;4953858;28;20544;-82
2021/12/06 03:23:49;;;;;;;16.75;5.72;;;;;;;;;;4954487;28;20031;-82
2021/12/06 03:26:16;;;;;;;88.45;8.25;;;;;;;;;;4954079;28;20137;-84
2021/12/06 03:28:44;;;;;;;124.25;9.63;;;;;;;;;;4936677;28;20024;-83
2021/12/06 03:31:10;;;;;;;29.67;7.30;;;;;;;;;;4953992;28;20050;-83
2021/12/06 03:33:38;;;;;;;155.77;11.75;;;;;;;;;;4968828;28;20027;-83
2021/12/06 03:36:05;;;;;;;85.70;10.18;;;;;;;;;;4956290;28;20042;-84
2021/12/06 03:38:31;;;;;;;46.45;9.35;;;;;;;;;;4955922;28;20065;-84
2021/12/06 03:40:57;;;;;;;63.50;9.88;;;;;;;;;;4948998;29;20053;-83
2021/12/06 03:43:23;;;;;;;37.42;7.15;;;;;;;;;;4954794;28;20534;-82
2021/12/06 03:45:49;;;;;;;128.20;9.32;;;;;;;;;;4953844;28;20102;-84
2021/12/06 03:48:15;;;;;;;89.10;9.48;;;;;;;;;;4936675;28;20051;-83
2021/12/06 03:50:41;;;;;;;119.75;8.85;;;;;;;;;;4953992;28;20031;-84
2021/12/06 03:53:07;;;;;;;48.95;7.07;;;;;;;;;;4954516;28;20027;-83
2021/12/06 03:55:33;;;;;;;48.90;7.47;;;;;;;;;;4937042;28;20483;-84
2021/12/06 03:57:59;;;;;;;33.97;7.35;;;;;;;;;;4954006;28;20510;-83
2021/12/06 04:00:25;;;;;;;25.67;6.55;;;;;;;;;;4937493;29;20042;-84
2021/12/06 04:02:52;;;;;;;39.72;7.10;;;;;;;;;;4954116;28;20596;-83
2021/12/06 04:05:18;;;;;;;36.13;7.50;;;;;;;;;;4954338;28;20483;-80
2021/12/06 04:07:44;;;;;;;67.35;7.07;;;;;;;;;;4953944;28;20038;-83
2021/12/06 04:10:11;;;;;;;23.00;6.65;;;;;;;;;;4952644;23;20039;-80
2021/12/06 04:12:38;;;;;;;29.55;6.55;;;;;;;;;;4920348;28;20111;-81
2021/12/06 04:15:05;;;;;;;23.73;6.68;;;;;;;;;;4954320;28;20525;-79
2021/12/06 04:17:31;;;;;;;9.70;6.00;;;;;;;;;;4958979;28;20035;-80
2021/12/06 04:19:57;;;;;;;47.33;6.90;;;;;;;;;;4959989;28;20034;-81
2021/12/06 04:22:23;;;;;;;36.97;6.15;;;;;;;;;;4960504;29;20027;-80
2021/12/06 04:24:49;;;;;;;16.67;6.25;;;;;;;;;;4958997;29;20097;-80
2021/12/06 04:27:16;;;;;;;10.90;6.13;;;;;;;;;;4948897;29;20030;-79
2021/12/06 04:29:43;;;;;;;30.98;6.40;;;;;;;;;;4939203;28;20031;-81
2021/12/06 04:32:10;;;;;;;32.22;7.15;;;;;;;;;;4957277;28;20032;-80
2021/12/06 04:34:36;;;;;;;25.83;7.97;;;;;;;;;;4959160;28;20087;-80
2021/12/06 04:37:02;;;;;;;18.30;6.50;;;;;;;;;;4959390;28;20031;-80
2021/12/06 04:39:28;;;;;;;32.03;7.10;;;;;;;;;;4960749;28;20051;-79
2021/12/06 04:41:55;;;;;;;28.20;7.60;;;;;;;;;;4958986;29;20034;-79
2021/12/06 04:44:21;;;;;;;48.60;7.72;;;;;;;;;;4958770;28;20020;-80
2021/12/06 04:46:47;;;;;;;16.85;7.22;;;;;;;;;;4959325;29;20031;-80
2021/12/06 04:49:13;;;;;;;17.33;7.55;;;;;;;;;;4959008;29;20034;-79
2021/12/06 04:51:41;;;;;;;27.13;8.00;;;;;;;;;;4961106;29;20054;-80
2021/12/06 04:54:07;;;;;;;63.35;7.22;;;;;;;;;;4961236;29;20031;-81
2021/12/06 04:56:38;;;;;;;18.20;6.68;;;;;;;;;;4959644;29;20062;-80
2021/12/06 04:59:20;;;;;;;25.00;7.75;;;;;;;;;;4958834;29;20089;-81
2021/12/06 05:01:47;;;;;;;41.60;6.60;;;;;;;;;;4960026;28;20085;-80
2021/12/06 05:04:16;;;;;;;21.30;7.60;;;;;;;;;;4959243;29;20100;-79
2021/12/06 05:06:43;;;;;;;34.17;7.07;;;;;;;;;;4941577;28;20050;-80
2021/12/06 05:09:13;;;;;;;70.15;7.78;;;;;;;;;;4958465;28;20028;-80
2021/12/06 05:11:39;;;;;;;43.78;7.47;;;;;;;;;;4942173;28;20019;-80
2021/12/06 05:14:05;;;;;;;103.55;9.63;;;;;;;;;;4958165;29;20023;-80
2021/12/06 05:16:33;;;;;;;45.13;8.35;;;;;;;;;;4957574;29;20088;-81
2021/12/06 05:18:59;;;;;;;56.90;7.40;;;;;;;;;;4950373;28;20031;-79
2021/12/06 05:21:25;;;;;;;55.00;8.20;;;;;;;;;;4957789;28;20027;-81
2021/12/06 05:23:51;;;;;;;16.45;7.25;;;;;;;;;;4956729;28;20031;-79
2021/12/06 05:26:18;;;;;;;23.00;7.50;;;;;;;;;;4956199;28;20027;-80
2021/12/06 05:28:46;;;;;;;31.08;7.72;;;;;;;;;;4954204;29;20098;-78
2021/12/06 05:31:15;;;;;;;34.40;7.13;;;;;;;;;;4954790;29;20027;-80
2021/12/06 05:33:46;;;;;;;26.85;7.50;;;;;;;;;;4954776;29;20028;-79
2021/12/06 05:36:12;;;;;;;25.80;8.15;;;;;;;;;;4955025;29;20494;-80
2021/12/06 05:38:38;;;;;;;33.70;7.00;;;;;;;;;;4954981;29;20395;-80
2021/12/06 05:41:04;;;;;;;19.70;6.45;;;;;;;;;;4946721;28;20012;-83
2021/12/06 05:43:31;;;;;;;56.60;7.93;;;;;;;;;;4965767;28;20031;-79
2021/12/06 05:45:57;;;;;;;30.20;6.45;;;;;;;;;;4956032;29;20031;-79
2021/12/06 05:48:23;;;;;;;17.13;6.32;;;;;;;;;;4938786;28;20028;-80
2021/12/06 05:50:49;;;;;;;60.33;7.60;;;;;;;;;;4955934;29;20498;-79
2021/12/06 05:53:16;;;;;;;37.53;7.22;;;;;;;;;;4938463;28;20055;-78
2021/12/06 05:55:43;;;;;;;43.60;6.53;;;;;;;;;;4955603;28;20077;-81
2021/12/06 05:58:10;;;;;;;44.03;7.25;;;;;;;;;;4953928;29;20042;-79
2021/12/06 06:00:36;;;;;;;36.45;6.82;;;;;;;;;;4953433;29;20035;-79
2021/12/06 06:03:03;;;;;;;32.58;7.15;;;;;;;;;;4953759;29;20403;-79
2021/12/06 06:05:30;;;;;;;43.30;7.93;;;;;;;;;;4953823;29;20471;-79
2021/12/06 06:07:56;;;;;;;40.75;7.70;;;;;;;;;;4936143;29;20027;-80
2021/12/06 06:10:22;;;;;;;45.38;8.15;;;;;;;;;;4954446;29;20046;-81
2021/12/06 06:12:48;;;;;;;31.70;6.97;;;;;;;;;;4954225;29;20035;-80
2021/12/06 06:15:14;;;;;;;25.95;6.63;;;;;;;;;;4936147;28;20031;-79
2021/12/06 06:17:43;;;;;;;36.42;6.70;;;;;;;;;;4953663;28;20077;-81
2021/12/06 06:20:21;;;;;;;72.13;7.95;;;;;;;;;;4937384;28;20031;-79
2021/12/06 06:22:47;;;;;;;44.63;8.00;;;;;;;;;;4954080;28;20062;-79
2021/12/06 06:25:15;;;;;;;62.15;7.93;;;;;;;;;;4953253;28;20105;-81
2021/12/06 06:27:41;;;;;;;82.05;8.52;;;;;;;;;;4953628;28;20038;-78
2021/12/06 06:30:07;;;;;;;63.95;8.23;;;;;;;;;;4952678;28;20065;-78
2021/12/06 06:32:33;;;;;;;57.08;7.82;;;;;;;;;;4935917;28;20027;-80
2021/12/06 06:34:59;;;;;;;30.63;7.57;;;;;;;;;;4954226;28;20114;-80
2021/12/06 06:37:25;;;;;;;25.13;8.25;;;;;;;;;;4953275;28;20058;-78
2021/12/06 06:39:52;;;;;;;23.15;8.02;;;;;;;;;;4953972;29;20400;-81
2021/12/06 06:42:22;;;;;;;80.00;9.70;;;;;;;;;;4953824;29;20023;-77
2021/12/06 06:44:49;;;;;;;62.28;8.85;;;;;;;;;;4952509;28;20031;-76
2021/12/06 06:47:15;;;;;;;47.30;7.47;;;;;;;;;;4952674;29;20024;-81
2021/12/06 06:49:40;;;;;;;38.17;7.72;;;;;;;;;;4954248;29;20370;-81
2021/12/06 06:52:06;;;;;;;49.05;8.63;;;;;;;;;;4943959;29;20032;-80
2021/12/06 06:54:32;;;;;;;34.33;8.18;;;;;;;;;;4954452;29;20565;-80
2021/12/06 06:56:58;;;;;;;17.67;8.45;;;;;;;;;;4936879;28;20047;-81
2021/12/06 06:59:24;;;;;;;45.45;8.10;;;;;;;;;;4953683;29;20038;-80
2021/12/06 07:01:51;;;;;;;53.60;8.32;;;;;;;;;;4936400;28;20501;-78
2021/12/06 07:04:17;;;;;;;19.58;7.22;;;;;;;;;;4936089;28;20023;-79
2021/12/06 07:06:44;;;;;;;19.10;7.95;;;;;;;;;;4953903;29;20031;-80
2021/12/06 07:09:10;;;;;;;21.90;7.90;;;;;;;;;;4953849;28;20494;-80
2021/12/06 07:11:36;;;;;;;14.85;7.53;;;;;;;;;;4954430;28;20612;-79
2021/12/06 07:14:03;;;;;;;16.50;6.85;;;;;;;;;;4953452;29;20054;-79
2021/12/06 07:16:29;;;;;;;16.98;7.88;;;;;;;;;;4956094;29;20050;-80
2021/12/06 07:18:56;;;;;;;40.92;8.32;;;;;;;;;;4954009;29;20027;-78
2021/12/06 07:21:22;;;;;;;22.40;8.13;;;;;;;;;;4954185;29;20034;-79
2021/12/06 07:23:49;;;;;;;26.42;8.38;;;;;;;;;;4954635;29;20042;-80
2021/12/06 07:26:16;;;;;;;29.17;8.38;;;;;;;;;;4936246;28;20033;-80
2021/12/06 07:28:43;;;;;;;27.42;9.95;;;;;;;;;;4953539;28;20428;-79
2021/12/06 07:31:12;;;;;;;63.00;9.23;;;;;;;;;;4953920;29;20023;-80
2021/12/06 07:33:39;;;;;;;64.68;10.60;;;;;;;;;;4953137;28;20024;-79
2021/12/06 07:36:06;;;;;;;33.35;10.75;;;;;;;;;;4953675;29;20028;-79
2021/12/06 07:38:34;;;;;;;25.02;10.07;;;;;;;;;;4954617;29;20486;-78
2021/12/06 07:41:01;;;;;;;90.28;11.07;;;;;;;;;;4969047;28;20027;-81
2021/12/06 07:43:27;;;;;;;48.75;11.05;;;;;;;;;;4959564;28;20035;-81
2021/12/06 07:45:53;;;;;;;108.53;11.10;;;;;;;;;;4937674;29;20085;-80
2021/12/06 07:48:20;;;;;;;38.22;10.23;;;;;;;;;;4953898;29;20019;-81
2021/12/06 07:50:46;;;;;;;38.33;9.73;;;;;;;;;;4954110;29;20379;-81
2021/12/06 07:53:12;;;;;;;20.30;8.85;;;;;;;;;;4954102;29;20081;-79
2021/12/06 07:55:38;;;;;;;28.05;8.82;;;;;;;;;;4935293;28;20073;-79
2021/12/06 07:58:06;;;;;;;37.95;10.98;;;;;;;;;;4936812;28;20039;-80
2021/12/06 08:00:34;;;;;;;26.85;10.15;;;;;;;;;;4935835;29;20193;-80
2021/12/06 08:03:00;;;;;;;151.43;12.00;;;;;;;;;;4952916;29;20051;-80
2021/12/06 08:05:29;;;;;;;29.15;9.82;;;;;;;;;;4952959;29;20028;-80
2021/12/06 08:07:56;;;;;;;28.80;10.82;;;;;;;;;;4936201;28;20035;-80
2021/12/06 08:10:22;;;;;;;21.42;9.68;;;;;;;;;;4936236;29;20376;-80
2021/12/06 08:12:48;;;;;;;82.80;10.82;;;;;;;;;;4955126;29;20043;-81
2021/12/06 08:15:14;;;;;;;218.90;14.77;;;;;;;;;;4939791;29;20438;-82
2021/12/06 08:17:40;;;;;;;36.05;9.98;;;;;;;;;;4956763;29;20027;-81
2021/12/06 08:20:08;;;;;;;28.67;9.30;;;;;;;;;;4955324;29;20034;-81
2021/12/06 08:22:34;;;;;;;31.40;9.93;;;;;;;;;;4955088;29;20039;-81
2021/12/06 08:25:00;;;;;;;72.32;10.63;;;;;;;;;;4954398;29;20038;-81
2021/12/06 08:27:26;;;;;;;59.85;11.60;;;;;;;;;;4955094;29;20028;-82
2021/12/06 08:29:52;;;;;;;41.28;9.55;;;;;;;;;;4936739;29;20499;-80
2021/12/06 08:32:18;;;;;;;64.90;10.60;;;;;;;;;;4936603;28;20055;-79
2021/12/06 08:34:44;;;;;;;25.45;8.43;;;;;;;;;;4954147;29;20157;-80
2021/12/06 08:37:11;;;;;;;56.25;10.30;;;;;;;;;;4954569;29;20039;-80
2021/12/06 08:39:38;;;;;;;36.00;9.43;;;;;;;;;;4954105;29;20034;-80
2021/12/06 08:42:05;;;;;;;40.15;9.05;;;;;;;;;;4954242;29;20029;-80
2021/12/06 08:44:31;;;;;;;72.07;9.48;;;;;;;;;;4953911;29;20034;-79
2021/12/06 08:46:57;;;;;;;75.80;9.75;;;;;;;;;;4956120;29;20000;-80
2021/12/06 08:49:24;;;;;;;22.58;6.72;;;;;;;;;;4938138;28;20031;-80
2021/12/06 08:51:53;;;;;;;25.20;7.85;;;;;;;;;;4955076;28;20020;-80
2021/12/06 08:54:19;;;;;;;19.02;8.02;;;;;;;;;;4937073;29;20031;-79
2021/12/06 08:56:46;;;;;;;15.00;7.57;;;;;;;;;;4955480;29;20149;-80
2021/12/06 08:59:12;;;;;;;12.30;6.55;;;;;;;;;;4955266;28;20118;-81
2021/12/06 09:01:39;;;;;;;32.80;9.30;;;;;;;;;;4956864;29;20043;-80
2021/12/06 09:04:11;;;;;;;23.95;7.93;;;;;;;;;;4957686;29;20034;-80
2021/12/06 09:06:38;;;;;;;16.08;7.15;;;;;;;;;;4957619;28;20031;-80
2021/12/06 09:09:07;;;;;;;17.85;7.40;;;;;;;;;;4957672;29;20031;-80
2021/12/06 09:11:34;;;;;;;18.80;7.60;;;;;;;;;;4957944;28;20031;-80
2021/12/06 09:14:00;;;;;;;21.88;8.20;;;;;;;;;;4957429;29;20030;-80
2021/12/06 09:16:26;;;;;;;17.98;8.00;;;;;;;;;;4957929;29;20367;-81
2021/12/06 09:18:53;;;;;;;18.55;7.38;;;;;;;;;;4939922;29;20476;-81
2021/12/06 09:21:21;;;;;;;21.83;6.80;;;;;;;;;;4939292;29;20027;-79
2021/12/06 09:23:47;;;;;;;16.90;6.95;;;;;;;;;;4956676;29;20034;-79
2021/12/06 09:26:13;;;;;;;14.13;6.70;;;;;;;;;;4956522;29;20525;-81
2021/12/06 09:28:39;;;;;;;20.95;8.82;;;;;;;;;;4957290;29;20043;-81
2021/12/06 09:31:06;;;;;;;13.18;7.05;;;;;;;;;;4957966;29;20091;-80
2021/12/06 09:33:33;;;;;;;23.02;8.90;;;;;;;;;;4958728;29;20471;-80
2021/12/06 09:36:00;;;;;;;25.92;8.75;;;;;;;;;;4939921;29;20425;-81
2021/12/06 09:38:32;;;;;;;32.67;8.23;;;;;;;;;;4963381;29;20027;-80
2021/12/06 09:40:58;;;;;;;23.10;8.82;;;;;;;;;;4960735;28;20043;-79
2021/12/06 09:43:24;;;;;;;25.17;8.45;;;;;;;;;;4960341;28;20023;-81
2021/12/06 09:45:50;;;;;;;18.33;8.40;;;;;;;;;;4938821;28;20031;-80
2021/12/06 09:48:17;;;;;;;24.95;9.43;;;;;;;;;;4956577;28;20425;-82
2021/12/06 09:50:46;;;;;;;14.85;7.25;;;;;;;;;;4956248;28;20023;-81
2021/12/06 09:53:14;;;;;;;25.40;8.82;;;;;;;;;;4938766;29;20053;-81
2021/12/06 09:55:42;;;;;;;18.20;8.10;;;;;;;;;;4956219;29;20522;-81
2021/12/06 09:58:08;;;;;;;20.85;7.55;;;;;;;;;;4956587;29;20062;-81
2021/12/06 10:00:36;;;;;;;30.13;7.78;;;;;;;;;;4938144;28;20024;-81
2021/12/06 10:03:03;;;;;;;28.17;8.13;;;;;;;;;;4956268;28;20031;-82
2021/12/06 10:05:29;;;;;;;14.45;7.45;;;;;;;;;;4938288;28;20082;-81
2021/12/06 10:07:56;;;;;;;20.50;8.52;;;;;;;;;;4956046;28;20020;-82
2021/12/06 10:10:22;;;;;;;22.83;7.78;;;;;;;;;;4954395;28;20067;-80
2021/12/06 10:12:52;;;;;;;42.45;7.70;;;;;;;;;;4954136;29;20325;-80
2021/12/06 10:15:19;;;;;;;27.15;7.88;;;;;;;;;;4955050;29;20031;-80
2021/12/06 10:17:45;;;;;;;16.48;7.90;;;;;;;;;;4954613;29;20027;-79
2021/12/06 10:20:11;;;;;;;17.15;7.90;;;;;;;;;;4965543;28;20015;-80
2021/12/06 10:22:37;;;;;;;16.55;8.70;;;;;;;;;;4953744;29;20457;-79
2021/12/06 10:25:04;;;;;;;20.48;8.52;;;;;;;;;;4954216;29;20046;-80
2021/12/06 10:27:30;;;;;;;15.40;8.02;;;;;;;;;;4954529;29;20475;-81
2021/12/06 10:30:02;;;;;;;17.17;9.68;;;;;;;;;;4956748;29;20098;-80
2021/12/06 10:32:31;;;;;;;20.95;8.95;;;;;;;;;;4956490;29;20034;-80
2021/12/06 10:34:59;;;;;;;15.25;8.13;;;;;;;;;;4937422;29;20121;-80
2021/12/06 10:37:29;;;;;;;20.30;8.52;;;;;;;;;;4955262;29;20054;-81
2021/12/06 10:39:55;;;;;;;16.98;9.48;;;;;;;;;;4955752;29;20039;-81
2021/12/06 10:42:28;;;;;;;15.18;8.00;;;;;;;;;;4957704;29;20034;-80
2021/12/06 10:44:54;;;;;;;17.30;8.45;;;;;;;;;;4957866;29;20053;-81
2021/12/06 10:47:20;;;;;;;18.17;8.48;;;;;;;;;;4958546;29;20530;-81
2021/12/06 10:49:48;;;;;;;19.10;9.25;;;;;;;;;;4958180;29;20097;-80
2021/12/06 10:52:24;;;;;;;15.45;8.15;;;;;;;;;;4958708;28;20023;-81
2021/12/06 10:54:52;;;;;;;12.88;7.03;;;;;;;;;;4958792;28;20035;-82
2021/12/06 10:57:19;;;;;;;12.18;7.05;;;;;;;;;;4957298;28;20031;-81
2021/12/06 10:59:45;;;;;;;12.35;7.13;;;;;;;;;;4939428;28;20038;-80
2021/12/06 11:02:12;;;;;;;11.10;6.40;;;;;;;;;;4956361;29;20019;-81
2021/12/06 11:04:40;;;;;;;9.82;5.93;;;;;;;;;;4956543;29;20028;-80
2021/12/06 11:07:07;;;;;;;8.43;5.28;;;;;;;;;;4956753;29;20023;-81
2021/12/06 11:09:35;;;;;;;11.38;5.80;;;;;;;;;;4956012;29;20043;-81
2021/12/06 11:12:02;;;;;;;11.88;5.25;;;;;;;;;;4938914;29;20043;-81
2021/12/06 11:14:30;;;;;;;6.93;4.15;;;;;;;;;;4957016;28;20058;-81
2021/12/06 11:17:01;;;;;;;7.72;4.03;;;;;;;;;;4956940;29;20049;-81
2021/12/06 11:19:29;;;;;;;7.28;4.85;;;;;;;;;;4956103;28;20037;-81
2021/12/06 11:21:56;;;;;;;6.93;4.60;;;;;;;;;;4955705;29;20077;-80
2021/12/06 11:24:25;;;;;;;11.02;5.43;;;;;;;;;;4956132;28;20121;-81
2021/12/06 11:27:02;;;;;;;10.88;5.60;;;;;;;;;;4956802;28;20031;-80
2021/12/06 11:29:30;;;;;;;7.43;4.40;;;;;;;;;;4938983;28;20023;-80
2021/12/06 11:32:02;;;;;;;9.13;5.45;;;;;;;;;;4956965;28;20039;-81
2021/12/06 11:34:30;;;;;;;7.43;5.35;;;;;;;;;;4956296;29;20034;-80
2021/12/06 11:36:56;;;;;;;6.93;3.70;;;;;;;;;;4956999;29;20046;-80
2021/12/06 11:39:24;;;;;;;7.13;5.05;;;;;;;;;;4939554;28;20504;-80
2021/12/06 11:41:54;;;;;;;7.07;4.75;;;;;;;;;;4956250;28;20031;-80
2021/12/06 11:44:20;;;;;;;7.32;4.60;;;;;;;;;;4957276;28;20043;-80
2021/12/06 11:46:47;;;;;;;9.55;4.60;;;;;;;;;;4956774;28;20640;-81
2021/12/06 11:49:22;;;;;;;7.05;4.32;;;;;;;;;;4938968;28;20118;-81
2021/12/06 11:51:50;;;;;;;8.63;4.10;;;;;;;;;;4938869;28;20027;-81
2021/12/06 11:54:16;;;;;;;6.82;4.30;;;;;;;;;;4941089;29;20028;-79
2021/12/06 11:56:45;;;;;;;7.22;3.83;;;;;;;;;;4961701;29;20027;-80
2021/12/06 11:59:12;;;;;;;8.05;4.75;;;;;;;;;;4941398;29;20034;-81
2021/12/06 12:01:38;;;;;;;8.70;4.35;;;;;;;;;;4938838;29;20466;-81
2021/12/06 12:04:15;;;;;;;9.90;4.40;;;;;;;;;;4956168;28;20031;-80
2021/12/06 12:06:42;;;;;;;12.57;6.13;;;;;;;;;;4956155;29;20190;-81
2021/12/06 12:09:11;;;;;;;11.52;5.35;;;;;;;;;;4955924;29;20031;-80
2021/12/06 12:11:58;;;;;;;7.18;4.45;;;;;;;;;;4956239;29;20043;-80
2021/12/06 12:14:32;;;;;;;7.03;4.90;;;;;;;;;;4956097;29;20023;-80
2021/12/06 12:17:00;;;;;;;6.63;3.97;;;;;;;;;;4956227;29;20534;-80
2021/12/06 12:19:26;;;;;;;5.72;4.50;;;;;;;;;;4955611;29;20066;-80
2021/12/06 12:21:53;;;;;;;8.77;5.07;;;;;;;;;;4956094;29;20031;-80
2021/12/06 12:24:19;;;;;;;8.07;4.45;;;;;;;;;;4956400;29;20024;-80
2021/12/06 12:26:56;;;;;;;7.68;4.90;;;;;;;;;;4956062;29;20124;-79
2021/12/06 12:29:26;;;;;;;11.30;5.20;;;;;;;;;;4956021;29;20133;-80
2021/12/06 12:32:12;;;;;;;6.80;4.53;;;;;;;;;;4938397;29;20027;-81
2021/12/06 12:34:39;;;;;;;9.75;4.90;;;;;;;;;;4958085;28;20027;-80
2021/12/06 12:37:08;;;;;;;9.10;5.65;;;;;;;;;;4959093;29;20459;-80
2021/12/06 12:39:34;;;;;;;7.15;5.38;;;;;;;;;;4958832;29;20027;-81
2021/12/06 12:42:02;;;;;;;8.75;5.82;;;;;;;;;;4959307;29;20051;-80
2021/12/06 12:44:42;;;;;;;10.15;6.10;;;;;;;;;;4941027;29;20027;-80
2021/12/06 12:47:18;;;;;;;12.02;5.93;;;;;;;;;;4959330;29;20027;-80
2021/12/06 12:49:49;;;;;;;9.15;6.03;;;;;;;;;;4959599;29;20027;-81
2021/12/06 12:52:15;;;;;;;10.40;6.43;;;;;;;;;;4958892;29;20050;-80
2021/12/06 12:54:45;;;;;;;11.60;6.57;;;;;;;;;;4941929;28;20165;-81
2021/12/06 12:57:14;;;;;;;10.05;6.10;;;;;;;;;;4959444;29;20023;-80
2021/12/06 12:59:50;;;;;;;9.60;6.15;;;;;;;;;;4959314;28;20047;-80
2021/12/06 13:02:24;;;;;;;10.23;6.18;;;;;;;;;;4958760;29;20023;-80
2021/12/06 13:05:02;;;;;;;10.10;6.47;;;;;;;;;;4941014;29;20038;-81
2021/12/06 13:07:32;;;;;;;10.63;6.93;;;;;;;;;;4941770;28;20029;-81
2021/12/06 13:10:18;;;;;;;14.02;6.60;;;;;;;;;;4941946;29;20520;-80
2021/12/06 13:13:02;;;;;;;12.65;6.68;;;;;;;;;;4959177;29;20023;-80
2021/12/06 13:15:54;;;;;;;11.15;6.25;;;;;;;;;;4958966;28;20043;-81
2021/12/06 13:19:43;;;;;;;12.85;6.97;;;;;;;;;;4958856;28;20053;-80
2021/12/06 13:21:49;;;;;;;8.23;5.80;;;;;;;;;;4966774;28;20367;-80
2021/12/06 13:24:18;;;;;;;9.95;6.10;;;;;;;;;;4941540;28;20043;-80
2021/12/06 13:26:45;;;;;;;8.98;5.38;;;;;;;;;;4958484;28;20027;-81
2021/12/06 13:29:12;;;;;;;6.65;4.78;;;;;;;;;;4958622;28;20030;-81
2021/12/06 13:31:39;;;;;;;10.02;4.93;;;;;;;;;;4958647;28;20023;-80
2021/12/06 13:34:18;;;;;;;6.80;3.90;;;;;;;;;;4941702;28;20058;-81
2021/12/06 13:36:46;;;;;;;11.15;5.35;;;;;;;;;;4941720;28;20130;-80
2021/12/06 13:39:44;;;;;;;8.98;5.28;;;;;;;;;;4958138;28;20035;-80
2021/12/06 13:42:12;;;;;;;8.35;4.57;;;;;;;;;;4916567;29;20491;-80
2021/12/06 13:44:38;;;;;;;9.32;5.50;;;;;;;;;;4958574;28;20108;-80
2021/12/06 13:47:08;;;;;;;8.95;4.85;;;;;;;;;;4940329;28;20482;-80
2021/12/06 13:49:34;;;;;;;8.35;3.90;;;;;;;;;;4958601;28;20035;-80
2021/12/06 13:52:02;;;;;;;6.63;4.43;;;;;;;;;;4958495;29;20023;-81
2021/12/06 13:54:30;;;;;;;8.18;4.68;;;;;;;;;;4958532;29;20032;-81
2021/12/06 13:57:05;;;;;;;10.02;5.13;;;;;;;;;;4941869;29;20513;-80
2021/12/06 13:59:31;;;;;;;20.25;7.65;;;;;;;;;;4958949;29;20036;-80
2021/12/06 14:02:05;;;;;;;16.52;7.07;;;;;;;;;;4959151;28;20104;-80
2021/12/06 14:04:33;;;;;;;15.02;7.70;;;;;;;;;;4958419;28;20055;-80
2021/12/06 14:07:01;;;;;;;11.40;6.60;;;;;;;;;;4958583;29;20038;-81
2021/12/06 14:09:32;;;;;;;9.40;5.95;;;;;;;;;;4957794;28;20039;-81
2021/12/06 14:12:01;;;;;;;8.45;6.57;;;;;;;;;;4958583;28;20016;-81
2021/12/06 14:14:28;;;;;;;10.82;6.53;;;;;;;;;;4956668;29;20029;-80
2021/12/06 14:16:55;;;;;;;11.10;5.75;;;;;;;;;;4960213;29;20027;-81
2021/12/06 14:19:24;;;;;;;6.57;4.85;;;;;;;;;;4960296;28;20027;-81
2021/12/06 14:21:51;;;;;;;9.60;6.03;;;;;;;;;;4939098;28;20479;-79
2021/12/06 14:24:17;;;;;;;8.38;5.93;;;;;;;;;;4955139;29;20046;-80
2021/12/06 14:26:44;;;;;;;10.10;5.72;;;;;;;;;;4955811;28;20031;-80
2021/12/06 14:29:19;;;;;;;11.77;5.53;;;;;;;;;;4955814;28;20093;-80
2021/12/06 14:31:46;;;;;;;7.55;5.13;;;;;;;;;;4955740;29;20024;-81
2021/12/06 14:34:15;;;;;;;9.93;5.50;;;;;;;;;;4956685;28;20074;-81
2021/12/06 14:36:44;;;;;;;9.88;5.88;;;;;;;;;;4956275;28;20027;-81
2021/12/06 14:39:21;;;;;;;7.75;5.13;;;;;;;;;;4955381;28;20035;-80
2021/12/06 14:41:56;;;;;;;8.70;5.65;;;;;;;;;;4954946;29;20035;-78
2021/12/06 14:44:40;;;;;;;10.13;6.00;;;;;;;;;;4956897;29;20028;-81
2021/12/06 14:47:07;;;;;;;9.18;5.60;;;;;;;;;;4969859;29;20057;-80
2021/12/06 14:49:34;;;;;;;9.75;5.32;;;;;;;;;;4969090;29;20027;-81
2021/12/06 14:52:15;;;;;;;13.52;6.43;;;;;;;;;;4961548;29;20019;-80